createdAt,value
2023-09-23T00:00:02.480Z,9.67
2023-09-23T00:01:02.543Z,9.5
2023-09-23T00:02:02.513Z,9.67
2023-09-23T00:03:02.655Z,9.78
2023-09-23T00:04:02.662Z,9.67
2023-09-23T00:05:02.654Z,9.67
2023-09-23T00:07:02.495Z,9.78
2023-09-23T00:08:02.506Z,10.11
2023-09-23T00:09:02.495Z,9.94
2023-09-23T00:10:02.491Z,9.78
2023-09-23T00:11:02.669Z,9.94
2023-09-23T00:12:02.488Z,9.94
2023-09-23T00:13:02.503Z,9.67
2023-09-23T00:14:02.541Z,9.67
2023-09-23T00:15:02.515Z,9.5
2023-09-23T00:16:02.502Z,9.67
2023-09-23T00:17:02.506Z,9.67
2023-09-23T00:18:02.517Z,9.78
2023-09-23T00:19:02.487Z,9.5
2023-09-23T00:20:02.614Z,9.39
2023-09-23T00:22:02.538Z,9.67
2023-09-23T00:23:02.576Z,9.67
2023-09-23T00:25:02.500Z,9.5
2023-09-23T00:26:02.543Z,9.67
2023-09-23T00:27:02.498Z,9.5
2023-09-23T00:29:02.564Z,9.39
2023-09-23T00:31:02.575Z,9.39
2023-09-23T00:32:02.565Z,9.67
2023-09-23T00:33:02.557Z,9.22
2023-09-23T00:35:02.544Z,9.22
2023-09-23T00:36:02.537Z,9.06
2023-09-23T00:37:02.502Z,9.22
2023-09-23T00:38:02.551Z,9.06
2023-09-23T00:39:02.519Z,8.94
2023-09-23T00:40:02.536Z,9.06
2023-09-23T00:41:02.548Z,9.06
2023-09-23T00:43:02.514Z,9.06
2023-09-23T00:45:02.527Z,8.94
2023-09-23T00:46:02.536Z,9.06
2023-09-23T00:47:02.557Z,9.22
2023-09-23T00:49:02.518Z,8.94
2023-09-23T00:50:02.549Z,9.22
2023-09-23T00:51:02.513Z,9.06
2023-09-23T00:52:02.564Z,9.22
2023-09-23T00:53:02.607Z,9.39
2023-09-23T00:54:02.559Z,9.22
2023-09-23T00:55:02.532Z,9.06
2023-09-23T00:56:02.556Z,9.39
2023-09-23T00:57:02.584Z,9.22
2023-09-23T00:59:02.576Z,9.39
2023-09-23T01:00:02.573Z,9.5
2023-09-23T01:01:02.521Z,9.22
2023-09-23T01:02:02.643Z,9.22
2023-09-23T01:04:02.654Z,9.22
2023-09-23T01:05:02.555Z,9.06
2023-09-23T01:06:02.552Z,9.39
2023-09-23T01:08:02.579Z,9.06
2023-09-23T01:09:02.547Z,9.06
2023-09-23T01:10:02.552Z,9.5
2023-09-23T01:12:02.544Z,9.06
2023-09-23T01:14:02.601Z,9.06
2023-09-23T01:15:02.546Z,9.22
2023-09-23T01:16:02.573Z,9.22
2023-09-23T01:17:02.669Z,9.5
2023-09-23T01:19:02.529Z,9.39
2023-09-23T01:20:02.605Z,8.94
2023-09-23T01:21:02.581Z,9.22
2023-09-23T01:22:02.542Z,9.39
2023-09-23T01:24:02.564Z,9.06
2023-09-23T01:26:02.530Z,9.39
2023-09-23T01:27:02.541Z,9.39
2023-09-23T01:28:02.550Z,9.5
2023-09-23T01:29:02.606Z,9.5
2023-09-23T01:30:02.541Z,9.5
2023-09-23T01:31:02.571Z,9.5
2023-09-23T01:33:02.576Z,9.67
2023-09-23T01:35:02.596Z,9.67
2023-09-23T01:36:02.543Z,9.39
2023-09-23T01:37:02.569Z,9.5
2023-09-23T01:38:02.584Z,9.39
2023-09-23T01:39:02.531Z,9.39
2023-09-23T01:40:02.560Z,9.22
2023-09-23T01:41:02.604Z,9.06
2023-09-23T01:42:02.559Z,9.22
2023-09-23T01:44:02.592Z,9.5
2023-09-23T01:45:02.569Z,9.39
2023-09-23T01:47:02.631Z,9.39
2023-09-23T01:49:02.579Z,9.22
2023-09-23T01:50:02.641Z,9.44
2023-09-23T01:51:02.551Z,9.5
2023-09-23T01:52:02.554Z,9.39
2023-09-23T01:53:02.575Z,9.39
2023-09-23T01:54:02.564Z,9.22
2023-09-23T01:56:02.597Z,9.39
2023-09-23T01:57:02.545Z,9.22
2023-09-23T01:58:02.557Z,9.22
2023-09-23T01:59:02.669Z,9.06
2023-09-23T02:01:02.579Z,9.22
2023-09-23T02:03:02.665Z,9.22
2023-09-23T02:04:02.547Z,9.22
2023-09-23T02:05:02.589Z,8.94
2023-09-23T02:06:02.701Z,9.22
2023-09-23T02:07:02.546Z,9.06
2023-09-23T02:08:02.624Z,8.94
2023-09-23T02:10:02.575Z,9.22
2023-09-23T02:11:02.580Z,9.22
2023-09-23T02:12:02.594Z,9.39
2023-09-23T02:13:02.559Z,9.22
2023-09-23T02:14:02.666Z,9.22
2023-09-23T02:16:02.575Z,9.06
2023-09-23T02:18:02.590Z,9.39
2023-09-23T02:20:02.673Z,9.39
2023-09-23T02:21:02.560Z,9.22
2023-09-23T02:22:02.571Z,9.39
2023-09-23T02:23:02.625Z,8.94
2023-09-23T02:25:02.573Z,9.06
2023-09-23T02:26:02.677Z,9.22
2023-09-23T02:27:02.587Z,9.22
2023-09-23T02:28:02.606Z,9.22
2023-09-23T02:29:02.638Z,8.94
2023-09-23T02:30:02.569Z,9.39
2023-09-23T02:31:02.612Z,9.39
2023-09-23T02:32:02.586Z,9.22
2023-09-23T02:33:02.607Z,9.39
2023-09-23T02:34:02.578Z,8.94
2023-09-23T02:35:02.672Z,9.22
2023-09-23T02:36:02.581Z,9.39
2023-09-23T02:37:02.590Z,9.22
2023-09-23T02:38:02.597Z,9.22
2023-09-23T02:39:02.572Z,9.5
2023-09-23T02:40:02.589Z,9.5
2023-09-23T02:41:02.575Z,9.5
2023-09-23T02:42:02.573Z,8.94
2023-09-23T02:43:02.589Z,9.5
2023-09-23T02:44:02.785Z,9.5
2023-09-23T02:45:02.576Z,9.39
2023-09-23T02:46:02.603Z,9.39
2023-09-23T02:47:02.594Z,9.5
2023-09-23T02:48:02.645Z,9.22
2023-09-23T02:49:02.674Z,9.06
2023-09-23T02:51:02.613Z,9.39
2023-09-23T02:52:02.581Z,9.22
2023-09-23T02:54:02.601Z,9.06
2023-09-23T02:56:02.616Z,9.5
2023-09-23T02:58:02.599Z,9.5
2023-09-23T02:59:02.630Z,9.39
2023-09-23T03:00:02.611Z,9.39
2023-09-23T03:02:02.718Z,9.22
2023-09-23T03:03:02.734Z,9.06
2023-09-23T03:05:02.672Z,9.22
2023-09-23T03:07:02.605Z,9.06
2023-09-23T03:08:02.595Z,9.39
2023-09-23T03:09:02.651Z,9.39
2023-09-23T03:11:02.602Z,9.39
2023-09-23T03:12:02.579Z,9.5
2023-09-23T03:13:02.599Z,9.39
2023-09-23T03:14:02.678Z,9.39
2023-09-23T03:15:02.585Z,9.06
2023-09-23T03:16:02.657Z,9.67
2023-09-23T03:17:02.664Z,9.39
2023-09-23T03:18:02.786Z,9.22
2023-09-23T03:20:02.606Z,9.5
2023-09-23T03:21:02.588Z,9.39
2023-09-23T03:22:02.612Z,9.06
2023-09-23T03:24:02.586Z,8.94
2023-09-23T03:26:02.584Z,9.39
2023-09-23T03:27:02.592Z,9.5
2023-09-23T03:28:02.573Z,9.5
2023-09-23T03:29:02.623Z,9.5
2023-09-23T03:31:02.569Z,9.5
2023-09-23T03:32:02.694Z,9.22
2023-09-23T03:33:02.682Z,9.39
2023-09-23T03:34:02.590Z,9.39
2023-09-23T03:35:02.579Z,9.39
2023-09-23T03:36:02.581Z,9.5
2023-09-23T03:37:10.098Z,9.22
2023-09-23T03:39:02.622Z,8.78
2023-09-23T03:40:02.581Z,9.5
2023-09-23T03:41:02.608Z,9.67
2023-09-23T03:42:02.576Z,9.39
2023-09-23T03:43:02.576Z,9.5
2023-09-23T03:44:02.619Z,9.67
2023-09-23T03:45:02.574Z,9.67
2023-09-23T03:46:02.621Z,9.78
2023-09-23T03:47:02.630Z,9.39
2023-09-23T03:48:02.705Z,9.78
2023-09-23T03:50:02.716Z,9.5
2023-09-23T03:51:02.576Z,9.5
2023-09-23T03:52:02.628Z,9.5
2023-09-23T03:54:02.585Z,9.67
2023-09-23T03:55:02.595Z,9.67
2023-09-23T03:56:02.641Z,9.5
2023-09-23T03:57:02.652Z,9.39
2023-09-23T03:59:02.665Z,9.5
2023-09-23T04:00:02.590Z,9.67
2023-09-23T04:01:02.599Z,9.67
2023-09-23T04:02:02.780Z,9.5
2023-09-23T04:04:02.709Z,9.5
2023-09-23T04:06:02.593Z,9.67
2023-09-23T04:07:02.638Z,9.67
2023-09-23T04:08:02.603Z,9.78
2023-09-23T04:09:02.612Z,9.5
2023-09-23T04:11:02.633Z,9.67
2023-09-23T04:12:02.640Z,9.5
2023-09-23T04:13:02.611Z,9.67
2023-09-23T04:15:02.586Z,9.5
2023-09-23T04:16:02.723Z,9.06
2023-09-23T04:17:02.594Z,9.5
2023-09-23T04:18:02.643Z,9.39
2023-09-23T04:19:02.586Z,9.39
2023-09-23T04:20:02.659Z,9.5
2023-09-23T04:21:02.687Z,9.5
2023-09-23T04:23:02.628Z,9.5
2023-09-23T04:25:02.592Z,9.22
2023-09-23T04:27:02.607Z,9.67
2023-09-23T04:28:02.605Z,9.67
2023-09-23T04:30:02.619Z,9.78
2023-09-23T04:31:02.602Z,9.5
2023-09-23T04:32:02.627Z,9.67
2023-09-23T04:33:02.768Z,9.67
2023-09-23T04:35:02.656Z,9.78
2023-09-23T04:36:02.629Z,9.67
2023-09-23T04:38:02.638Z,9.67
2023-09-23T04:39:02.609Z,9.67
2023-09-23T04:40:02.628Z,9.5
2023-09-23T04:41:02.707Z,10.11
2023-09-23T04:42:02.648Z,9.67
2023-09-23T04:43:02.620Z,9.94
2023-09-23T04:44:02.656Z,9.5
2023-09-23T04:45:02.619Z,9.67
2023-09-23T04:46:02.618Z,9.5
2023-09-23T04:47:02.649Z,9.67
2023-09-23T04:48:02.639Z,9.67
2023-09-23T04:49:02.598Z,9.5
2023-09-23T04:50:02.631Z,9.78
2023-09-23T04:52:02.634Z,9.78
2023-09-23T04:53:02.620Z,9.78
2023-09-23T04:54:02.631Z,9.5
2023-09-23T04:56:02.620Z,9.67
2023-09-23T04:57:02.590Z,9.67
2023-09-23T04:58:02.606Z,9.67
2023-09-23T04:59:02.626Z,9.5
2023-09-23T05:01:02.605Z,9.5
2023-09-23T05:02:02.643Z,9.39
2023-09-23T05:04:02.630Z,9.5
2023-09-23T05:05:02.634Z,9.67
2023-09-23T05:06:02.604Z,9.67
2023-09-23T05:07:02.606Z,9.67
2023-09-23T05:08:02.717Z,9.67
2023-09-23T05:10:02.601Z,9.78
2023-09-23T05:11:02.698Z,9.67
2023-09-23T05:12:02.613Z,9.39
2023-09-23T05:14:02.694Z,9.67
2023-09-23T05:15:02.678Z,9.67
2023-09-23T05:16:02.639Z,9.67
2023-09-23T05:17:02.619Z,9.67
2023-09-23T05:19:02.631Z,9.67
2023-09-23T05:20:02.622Z,9.78
2023-09-23T05:21:02.608Z,9.67
2023-09-23T05:22:02.603Z,9.78
2023-09-23T05:24:02.760Z,9.78
2023-09-23T05:25:02.609Z,9.67
2023-09-23T05:26:02.670Z,9.78
2023-09-23T05:28:02.603Z,9.5
2023-09-23T05:30:02.612Z,9.67
2023-09-23T05:32:02.688Z,9.67
2023-09-23T05:33:02.640Z,9.67
2023-09-23T05:34:02.688Z,9.78
2023-09-23T05:36:02.604Z,9.94
2023-09-23T05:38:02.688Z,9.94
2023-09-23T05:39:02.619Z,9.78
2023-09-23T05:40:02.626Z,9.67
2023-09-23T05:41:02.619Z,9.94
2023-09-23T05:42:02.610Z,9.78
2023-09-23T05:44:02.665Z,9.94
2023-09-23T05:45:02.617Z,9.94
2023-09-23T05:47:04.206Z,9.78
2023-09-23T05:48:02.682Z,9.78
2023-09-23T05:50:02.624Z,9.94
2023-09-23T05:51:02.598Z,9.78
2023-09-23T05:52:02.606Z,9.78
2023-09-23T05:53:02.698Z,10.11
2023-09-23T05:54:02.625Z,9.94
2023-09-23T05:55:02.615Z,10.11
2023-09-23T05:56:02.756Z,10.11
2023-09-23T05:58:02.619Z,9.67
2023-09-23T05:59:02.603Z,9.78
2023-09-23T06:00:02.629Z,9.78
2023-09-23T06:01:02.672Z,10.11
2023-09-23T06:02:02.618Z,9.78
2023-09-23T06:03:02.776Z,10.11
2023-09-23T06:05:02.807Z,9.78
2023-09-23T06:06:02.634Z,10.22
2023-09-23T06:07:02.620Z,9.94
2023-09-23T06:09:02.609Z,9.94
2023-09-23T06:11:02.631Z,9.78
2023-09-23T06:12:02.655Z,9.78
2023-09-23T06:14:02.640Z,9.78
2023-09-23T06:16:02.607Z,9.67
2023-09-23T06:17:02.723Z,9.78
2023-09-23T06:18:02.773Z,9.39
2023-09-23T06:20:02.635Z,9.78
2023-09-23T06:22:02.628Z,9.67
2023-09-23T06:23:02.663Z,9.78
2023-09-23T06:25:02.624Z,9.78
2023-09-23T06:26:02.690Z,9.78
2023-09-23T06:28:02.720Z,9.5
2023-09-23T06:29:02.696Z,9.67
2023-09-23T06:30:02.672Z,9.5
2023-09-23T06:32:02.669Z,9.06
2023-09-23T06:33:02.744Z,9.22
2023-09-23T06:35:02.695Z,9.22
2023-09-23T06:36:02.694Z,9.06
2023-09-23T06:38:02.641Z,9.22
2023-09-23T06:39:02.656Z,9.22
2023-09-23T06:41:02.665Z,9.5
2023-09-23T06:42:02.637Z,9.67
2023-09-23T06:43:02.627Z,9.06
2023-09-23T06:44:02.764Z,9.67
2023-09-23T06:45:02.619Z,9.39
2023-09-23T06:46:02.722Z,9.67
2023-09-23T06:47:03.351Z,9.67
2023-09-23T06:48:02.691Z,9.5
2023-09-23T06:50:02.657Z,9.5
2023-09-23T06:51:02.636Z,9.67
2023-09-23T06:52:02.644Z,9.67
2023-09-23T06:53:02.671Z,9.94
2023-09-23T06:54:02.644Z,9.78
2023-09-23T06:55:02.644Z,9.67
2023-09-23T06:56:02.697Z,9.94
2023-09-23T06:57:02.623Z,10.11
2023-09-23T06:58:02.644Z,10.11
2023-09-23T06:59:02.731Z,10.11
2023-09-23T07:00:02.655Z,10.22
2023-09-23T07:01:02.643Z,9.94
2023-09-23T07:02:02.744Z,10.22
2023-09-23T07:03:02.790Z,9.78
2023-09-23T07:04:02.729Z,10.11
2023-09-23T07:05:02.695Z,10.11
2023-09-23T07:06:02.638Z,10.11
2023-09-23T07:07:02.678Z,10.11
2023-09-23T07:09:02.651Z,10.17
2023-09-23T07:10:02.678Z,9.78
2023-09-23T07:12:02.711Z,10.11
2023-09-23T07:13:02.643Z,9.67
2023-09-23T07:14:02.730Z,9.67
2023-09-23T07:15:02.638Z,9.78
2023-09-23T07:16:02.701Z,9.67
2023-09-23T07:18:02.677Z,9.06
2023-09-23T07:20:02.669Z,9.67
2023-09-23T07:21:02.674Z,9.67
2023-09-23T07:22:02.645Z,9.94
2023-09-23T07:23:02.675Z,9.94
2023-09-23T07:24:03.818Z,9.94
2023-09-23T07:25:02.781Z,10.22
2023-09-23T07:26:02.679Z,10.22
2023-09-23T07:27:02.663Z,10.56
2023-09-23T07:28:02.680Z,10.83
2023-09-23T07:30:02.661Z,11
2023-09-23T07:31:02.734Z,10.67
2023-09-23T07:32:02.774Z,10.83
2023-09-23T07:34:02.688Z,10.67
2023-09-23T07:36:02.704Z,10.67
2023-09-23T07:38:02.801Z,10.67
2023-09-23T07:40:02.663Z,11.11
2023-09-23T07:41:02.673Z,11
2023-09-23T07:42:02.668Z,11
2023-09-23T07:43:02.677Z,10.67
2023-09-23T07:45:02.673Z,10.56
2023-09-23T07:46:02.751Z,10.67
2023-09-23T07:47:02.681Z,10.83
2023-09-23T07:48:02.747Z,10.83
2023-09-23T07:49:05.209Z,11
2023-09-23T07:50:02.731Z,10.67
2023-09-23T07:52:02.678Z,10.83
2023-09-23T07:53:02.691Z,10.83
2023-09-23T07:54:02.685Z,10.56
2023-09-23T07:56:02.717Z,10.67
2023-09-23T07:57:02.714Z,10.83
2023-09-23T07:58:02.660Z,10.67
2023-09-23T07:59:02.727Z,10.83
2023-09-23T08:00:02.673Z,10.83
2023-09-23T08:01:02.665Z,11.11
2023-09-23T08:02:02.751Z,11
2023-09-23T08:03:02.712Z,11.11
2023-09-23T08:04:02.716Z,10.83
2023-09-23T08:05:02.750Z,10.83
2023-09-23T08:06:02.669Z,11
2023-09-23T08:07:02.734Z,11
2023-09-23T08:08:02.748Z,11.28
2023-09-23T08:09:02.679Z,11.44
2023-09-23T08:10:02.667Z,11.44
2023-09-23T08:11:02.723Z,11.28
2023-09-23T08:12:02.680Z,11.44
2023-09-23T08:13:02.698Z,11.28
2023-09-23T08:15:02.713Z,11
2023-09-23T08:17:02.733Z,11.11
2023-09-23T08:18:02.711Z,11.28
2023-09-23T08:19:02.702Z,11.44
2023-09-23T08:20:02.732Z,11.44
2023-09-23T08:22:02.727Z,11.61
2023-09-23T08:24:02.684Z,11.44
2023-09-23T08:25:02.669Z,11.61
2023-09-23T08:26:02.746Z,11.44
2023-09-23T08:27:02.734Z,11.28
2023-09-23T08:29:02.699Z,11.28
2023-09-23T08:30:02.674Z,11.44
2023-09-23T08:31:02.723Z,11.61
2023-09-23T08:32:02.975Z,11.44
2023-09-23T08:34:02.692Z,11.44
2023-09-23T08:36:02.749Z,11.72
2023-09-23T08:39:02.730Z,11.44
2023-09-23T08:41:02.701Z,11.44
2023-09-23T08:43:02.685Z,11.61
2023-09-23T08:44:02.694Z,11.28
2023-09-23T08:45:02.681Z,11.72
2023-09-23T08:46:02.752Z,11.72
2023-09-23T08:48:02.733Z,11.61
2023-09-23T08:49:02.680Z,11.44
2023-09-23T08:50:02.691Z,11.72
2023-09-23T08:51:02.695Z,11.61
2023-09-23T08:52:02.707Z,11.72
2023-09-23T08:53:02.734Z,11.72
2023-09-23T08:55:02.690Z,11.61
2023-09-23T08:56:02.719Z,11.72
2023-09-23T08:57:02.718Z,11.72
2023-09-23T08:59:02.717Z,11.94
2023-09-23T09:00:03.200Z,11.72
2023-09-23T09:01:02.730Z,11.72
2023-09-23T09:03:02.743Z,11.83
2023-09-23T09:04:02.690Z,11.94
2023-09-23T09:05:02.772Z,12.11
2023-09-23T09:06:02.860Z,12.28
2023-09-23T09:08:02.736Z,11.94
2023-09-23T09:10:02.685Z,11.83
2023-09-23T09:11:02.796Z,11.94
2023-09-23T09:12:02.688Z,11.72
2023-09-23T09:13:02.698Z,12.11
2023-09-23T09:15:02.725Z,11.83
2023-09-23T09:17:02.728Z,12.11
2023-09-23T09:18:02.739Z,11.83
2023-09-23T09:20:02.715Z,11.72
2023-09-23T09:21:02.779Z,11.83
2023-09-23T09:23:02.753Z,11.83
2023-09-23T09:24:02.759Z,11.72
2023-09-23T09:25:02.689Z,11.72
2023-09-23T09:26:02.772Z,12.11
2023-09-23T09:27:02.686Z,12.28
2023-09-23T09:28:02.701Z,12.28
2023-09-23T09:29:02.733Z,12.11
2023-09-23T09:30:12.840Z,12.11
2023-09-23T09:31:02.742Z,12.11
2023-09-23T09:32:02.703Z,11.83
2023-09-23T09:33:02.769Z,11.94
2023-09-23T09:34:02.717Z,11.94
2023-09-23T09:36:02.699Z,12.44
2023-09-23T09:37:02.689Z,11.94
2023-09-23T09:38:11.463Z,12.28
2023-09-23T09:39:02.719Z,11.83
2023-09-23T09:40:02.738Z,12.28
2023-09-23T09:42:02.709Z,12.28
2023-09-23T09:43:02.692Z,12.11
2023-09-23T09:44:02.755Z,11.83
2023-09-23T09:46:02.705Z,11.94
2023-09-23T09:47:02.778Z,12.11
2023-09-23T09:48:02.766Z,11.83
2023-09-23T09:49:02.700Z,11.83
2023-09-23T09:50:02.735Z,12.28
2023-09-23T09:51:02.723Z,11.83
2023-09-23T09:52:02.766Z,12.11
2023-09-23T09:53:02.711Z,12.56
2023-09-23T09:54:02.696Z,12.11
2023-09-23T09:55:02.703Z,12.28
2023-09-23T09:56:02.824Z,12.44
2023-09-23T09:57:02.704Z,12.28
2023-09-23T09:58:02.722Z,12.28
2023-09-23T09:59:02.752Z,12.28
2023-09-23T10:00:02.705Z,12.11
2023-09-23T10:02:02.866Z,12.44
2023-09-23T10:04:02.709Z,11.94
2023-09-23T10:05:02.713Z,11.83
2023-09-23T10:06:02.720Z,11.94
2023-09-23T10:07:02.717Z,11.83
2023-09-23T10:08:02.792Z,11.83
2023-09-23T10:10:02.712Z,12.11
2023-09-23T10:11:02.788Z,11.61
2023-09-23T10:13:02.704Z,11.83
2023-09-23T10:14:02.772Z,11.83
2023-09-23T10:16:02.711Z,11.83
2023-09-23T10:17:02.966Z,11.83
2023-09-23T10:19:02.788Z,11.94
2023-09-23T10:21:02.742Z,11.72
2023-09-23T10:22:02.710Z,11.72
2023-09-23T10:23:02.755Z,11.72
2023-09-23T10:24:02.743Z,11.44
2023-09-23T10:25:02.720Z,11.44
2023-09-23T10:26:02.763Z,11.61
2023-09-23T10:27:02.707Z,11.44
2023-09-23T10:28:02.791Z,11.83
2023-09-23T10:30:02.709Z,11.28
2023-09-23T10:31:02.796Z,11.28
2023-09-23T10:32:02.756Z,11.44
2023-09-23T10:33:02.782Z,11
2023-09-23T10:35:02.775Z,11.61
2023-09-23T10:36:02.708Z,11.11
2023-09-23T10:37:02.719Z,11.44
2023-09-23T10:40:02.792Z,11.83
2023-09-23T10:42:02.730Z,11.44
2023-09-23T10:43:02.724Z,11.44
2023-09-23T10:44:02.778Z,11.11
2023-09-23T10:46:02.768Z,11.44
2023-09-23T10:47:02.752Z,11.44
2023-09-23T10:48:02.752Z,11.28
2023-09-23T10:49:02.718Z,11.11
2023-09-23T10:51:02.875Z,10.83
2023-09-23T10:53:02.726Z,10.83
2023-09-23T10:54:02.725Z,11.28
2023-09-23T10:56:02.730Z,11.28
2023-09-23T10:58:02.757Z,11.61
2023-09-23T10:59:02.769Z,11.61
2023-09-23T11:00:02.779Z,11.28
2023-09-23T11:02:02.881Z,11.28
2023-09-23T11:03:02.817Z,11.44
2023-09-23T11:04:02.821Z,11.44
2023-09-23T11:05:02.737Z,11.44
2023-09-23T11:06:02.740Z,11.61
2023-09-23T11:07:02.736Z,11.61
2023-09-23T11:08:02.754Z,11.28
2023-09-23T11:09:02.744Z,11.11
2023-09-23T11:11:02.750Z,11.28
2023-09-23T11:12:02.714Z,11.44
2023-09-23T11:13:02.746Z,11.44
2023-09-23T11:15:02.721Z,11.83
2023-09-23T11:16:02.825Z,11.72
2023-09-23T11:18:02.766Z,11.61
2023-09-23T11:19:02.721Z,11.94
2023-09-23T11:20:02.783Z,11.83
2023-09-23T11:22:02.748Z,12.11
2023-09-23T11:23:02.741Z,12.11
2023-09-23T11:24:02.774Z,11.83
2023-09-23T11:25:02.759Z,11.83
2023-09-23T11:27:02.733Z,12.11
2023-09-23T11:28:02.781Z,12.11
2023-09-23T11:30:02.757Z,12.11
2023-09-23T11:31:02.822Z,12.28
2023-09-23T11:33:02.851Z,12.11
2023-09-23T11:34:02.732Z,12.56
2023-09-23T11:35:02.793Z,11.94
2023-09-23T11:37:02.742Z,12.11
2023-09-23T11:38:02.776Z,12.11
2023-09-23T11:40:02.749Z,12.11
2023-09-23T11:41:02.821Z,12.28
2023-09-23T11:43:02.760Z,12.28
2023-09-23T11:44:02.789Z,12.44
2023-09-23T11:45:02.804Z,11.83
2023-09-23T11:47:02.742Z,12.28
2023-09-23T11:48:02.796Z,12.44
2023-09-23T11:49:02.794Z,12.11
2023-09-23T11:51:02.742Z,12.28
2023-09-23T11:52:02.731Z,11.83
2023-09-23T11:53:02.776Z,11.94
2023-09-23T11:55:02.784Z,11.83
2023-09-23T11:57:02.805Z,11.94
2023-09-23T11:59:08.587Z,12.28
2023-09-23T12:01:02.860Z,11.83
2023-09-23T12:03:02.765Z,11.83
2023-09-23T12:04:02.948Z,11.83
2023-09-23T12:05:02.840Z,11.61
2023-09-23T12:06:02.821Z,11.83
2023-09-23T12:07:02.752Z,11.72
2023-09-23T12:08:02.818Z,11.72
2023-09-23T12:10:02.769Z,11.61
2023-09-23T12:11:02.773Z,11.44
2023-09-23T12:12:02.803Z,11.61
2023-09-23T12:13:02.795Z,11.83
2023-09-23T12:15:02.755Z,11.72
2023-09-23T12:16:02.885Z,11.44
2023-09-23T12:17:02.816Z,11.72
2023-09-23T12:18:02.810Z,11.61
2023-09-23T12:19:02.783Z,11.28
2023-09-23T12:20:02.803Z,11.72
2023-09-23T12:22:02.774Z,11.83
2023-09-23T12:23:02.940Z,11.44
2023-09-23T12:24:02.744Z,11.83
2023-09-23T12:25:02.757Z,11.44
2023-09-23T12:26:02.866Z,11.61
2023-09-23T12:27:02.761Z,11.44
2023-09-23T12:28:02.763Z,11.72
2023-09-23T12:29:02.832Z,11
2023-09-23T12:31:02.758Z,11.5
2023-09-23T12:32:02.830Z,11.44
2023-09-23T12:34:02.784Z,11.44
2023-09-23T12:35:02.776Z,11.11
2023-09-23T12:36:02.832Z,11.44
2023-09-23T12:37:02.812Z,11.28
2023-09-23T12:39:02.755Z,11.28
2023-09-23T12:40:02.758Z,11.44
2023-09-23T12:41:02.780Z,11.33
2023-09-23T12:42:02.757Z,11.44
2023-09-23T12:43:02.812Z,11.44
2023-09-23T12:45:05.740Z,11.72
2023-09-23T12:46:02.909Z,11.11
2023-09-23T12:48:02.856Z,11.44
2023-09-23T12:50:02.804Z,11.28
2023-09-23T12:51:02.781Z,11.44
2023-09-23T12:52:02.829Z,11.83
2023-09-23T12:54:02.775Z,11.28
2023-09-23T12:55:02.795Z,11.72
2023-09-23T12:56:02.788Z,11.28
2023-09-23T12:57:02.763Z,11.44
2023-09-23T12:58:02.783Z,11.11
2023-09-23T12:59:02.789Z,11.61
2023-09-23T13:00:02.765Z,11.44
2023-09-23T13:01:02.817Z,11.44
2023-09-23T13:02:02.828Z,11.28
2023-09-23T13:03:02.935Z,11.28
2023-09-23T13:04:02.963Z,11.44
2023-09-23T13:05:02.916Z,11.44
2023-09-23T13:06:02.799Z,11.44
2023-09-23T13:07:02.786Z,11.61
2023-09-23T13:08:02.861Z,11.61
2023-09-23T13:09:02.767Z,11.72
2023-09-23T13:10:02.842Z,11.61
2023-09-23T13:12:02.781Z,11.83
2023-09-23T13:13:02.761Z,11.72
2023-09-23T13:14:02.836Z,11.61
2023-09-23T13:16:02.889Z,11.83
2023-09-23T13:17:02.819Z,11.44
2023-09-23T13:19:02.767Z,11.44
2023-09-23T13:20:02.824Z,11.72
2023-09-23T13:21:02.752Z,11.72
2023-09-23T13:22:02.835Z,11.83
2023-09-23T13:23:04.029Z,11.83
2023-09-23T13:25:02.770Z,12.28
2023-09-23T13:26:02.817Z,12.44
2023-09-23T13:27:02.783Z,11.94
2023-09-23T13:28:02.761Z,11.94
2023-09-23T13:29:02.816Z,11.61
2023-09-23T13:31:02.905Z,11.94
2023-09-23T13:32:02.775Z,11.94
2023-09-23T13:33:02.881Z,12.28
2023-09-23T13:34:04.159Z,12.11
2023-09-23T13:35:02.779Z,11.94
2023-09-23T13:36:02.787Z,11.83
2023-09-23T13:38:02.780Z,11.72
2023-09-23T13:39:02.765Z,11.94
2023-09-23T13:40:02.907Z,11.94
2023-09-23T13:42:02.779Z,11.94
2023-09-23T13:43:02.764Z,11.72
2023-09-23T13:44:02.808Z,11.83
2023-09-23T13:45:02.774Z,11.72
2023-09-23T13:46:02.824Z,11.83
2023-09-23T13:47:02.855Z,11.44
2023-09-23T13:48:02.921Z,11.83
2023-09-23T13:50:02.872Z,11.44
2023-09-23T13:52:02.770Z,11.72
2023-09-23T13:53:02.869Z,11.72
2023-09-23T13:55:02.780Z,11.61
2023-09-23T13:56:02.883Z,11.83
2023-09-23T13:57:02.797Z,11.83
2023-09-23T13:58:02.778Z,11.94
2023-09-23T13:59:02.881Z,11.83
2023-09-23T14:00:02.772Z,11.72
2023-09-23T14:01:02.814Z,11.61
2023-09-23T14:02:02.826Z,11.61
2023-09-23T14:03:02.882Z,11.72
2023-09-23T14:05:02.786Z,11.61
2023-09-23T14:06:02.838Z,11.44
2023-09-23T14:08:02.884Z,11.44
2023-09-23T14:10:10.969Z,11.44
2023-09-23T14:11:02.795Z,11.61
2023-09-23T14:12:02.831Z,11.28
2023-09-23T14:13:02.876Z,11.28
2023-09-23T14:14:02.800Z,11.28
2023-09-23T14:15:02.780Z,11.61
2023-09-23T14:16:02.995Z,11.44
2023-09-23T14:19:02.797Z,11.28
2023-09-23T14:21:02.791Z,11.44
2023-09-23T14:22:02.811Z,11.44
2023-09-23T14:23:02.816Z,10.83
2023-09-23T14:24:02.806Z,11.44
2023-09-23T14:25:02.781Z,11.44
2023-09-23T14:26:02.806Z,11.11
2023-09-23T14:27:02.791Z,11.11
2023-09-23T14:28:02.825Z,11.28
2023-09-23T14:29:02.825Z,11
2023-09-23T14:31:02.806Z,11
2023-09-23T14:32:02.821Z,11.44
2023-09-23T14:34:02.795Z,11.28
2023-09-23T14:35:02.830Z,11.11
2023-09-23T14:36:02.815Z,11
2023-09-23T14:37:02.801Z,11.28
2023-09-23T14:39:02.812Z,11.11
2023-09-23T14:40:02.820Z,11
2023-09-23T14:42:02.808Z,11
2023-09-23T14:43:02.804Z,11.28
2023-09-23T14:44:02.884Z,11.44
2023-09-23T14:45:02.806Z,11.44
2023-09-23T14:46:02.838Z,11.44
2023-09-23T14:48:02.859Z,11.28
2023-09-23T14:49:02.893Z,11.44
2023-09-23T14:51:02.796Z,11.28
2023-09-23T14:52:02.805Z,10.83
2023-09-23T14:53:02.833Z,11.11
2023-09-23T14:54:02.801Z,11.11
2023-09-23T14:55:05.370Z,11.11
2023-09-23T14:56:02.835Z,11.44
2023-09-23T14:57:02.871Z,11.28
2023-09-23T14:59:02.840Z,11.28
2023-09-23T15:00:02.844Z,11.44
2023-09-23T15:02:02.944Z,11.28
2023-09-23T15:03:03.014Z,10.83
2023-09-23T15:04:02.990Z,11.11
2023-09-23T15:05:02.869Z,11.28
2023-09-23T15:06:02.807Z,11.44
2023-09-23T15:07:02.902Z,11.28
2023-09-23T15:08:02.820Z,11.28
2023-09-23T15:09:03.073Z,11
2023-09-23T15:11:02.887Z,11.72
2023-09-23T15:12:02.805Z,11.28
2023-09-23T15:13:02.826Z,11.44
2023-09-23T15:14:02.850Z,11.28
2023-09-23T15:15:02.816Z,11.28
2023-09-23T15:16:02.919Z,11.28
2023-09-23T15:18:02.967Z,11.28
2023-09-23T15:20:02.845Z,11.44
2023-09-23T15:21:02.888Z,11.28
2023-09-23T15:23:02.859Z,11.28
2023-09-23T15:24:02.851Z,11.11
2023-09-23T15:25:02.840Z,11.11
2023-09-23T15:26:02.875Z,11.28
2023-09-23T15:27:02.933Z,11
2023-09-23T15:29:02.841Z,11.28
2023-09-23T15:30:02.837Z,11.44
2023-09-23T15:31:02.833Z,11
2023-09-23T15:32:02.902Z,11.28
2023-09-23T15:33:02.927Z,11.11
2023-09-23T15:34:02.891Z,11.11
2023-09-23T15:35:02.940Z,11
2023-09-23T15:36:02.824Z,11
2023-09-23T15:37:02.825Z,11
2023-09-23T15:38:02.868Z,11.11
2023-09-23T15:39:02.880Z,10.67
2023-09-23T15:40:02.825Z,11
2023-09-23T15:41:02.945Z,11
2023-09-23T15:43:02.828Z,11
2023-09-23T15:44:02.866Z,11
2023-09-23T15:45:02.852Z,11
2023-09-23T15:46:02.886Z,11
2023-09-23T15:47:02.843Z,11
2023-09-23T15:48:02.913Z,10.83
2023-09-23T15:49:02.898Z,10.56
2023-09-23T15:50:03.220Z,11
2023-09-23T15:51:02.832Z,11
2023-09-23T15:52:02.844Z,11.11
2023-09-23T15:53:02.870Z,11
2023-09-23T15:54:02.952Z,11
2023-09-23T15:56:02.880Z,11.11
2023-09-23T15:57:02.856Z,11
2023-09-23T15:58:02.841Z,11.11
2023-09-23T15:59:02.859Z,11
2023-09-23T16:01:02.948Z,11
2023-09-23T16:03:02.917Z,11.44
2023-09-23T16:04:03.004Z,11.28
2023-09-23T16:07:02.870Z,11
2023-09-23T16:08:02.894Z,11.11
2023-09-23T16:09:02.838Z,10.83
2023-09-23T16:10:02.849Z,10.83
2023-09-23T16:11:05.653Z,10.67
2023-09-23T16:12:02.848Z,11
2023-09-23T16:13:02.838Z,10.83
2023-09-23T16:14:02.844Z,10.56
2023-09-23T16:15:02.839Z,10.39
2023-09-23T16:16:02.963Z,10.39
2023-09-23T16:18:02.919Z,10.67
2023-09-23T16:19:02.850Z,10.56
2023-09-23T16:20:02.904Z,10.67
2023-09-23T16:21:02.854Z,10.83
2023-09-23T16:22:02.850Z,10.56
2023-09-23T16:23:02.841Z,10.39
2023-09-23T16:24:02.852Z,11
2023-09-23T16:25:02.842Z,10.22
2023-09-23T16:26:02.858Z,10.22
2023-09-23T16:27:02.851Z,10.39
2023-09-23T16:28:02.885Z,9.67
2023-09-23T16:30:02.855Z,10.11
2023-09-23T16:32:02.854Z,10.11
2023-09-23T16:33:02.915Z,9.94
2023-09-23T16:35:02.855Z,10.11
2023-09-23T16:36:02.897Z,9.94